sensor_id;sensor_type;location;lat;lon;timestamp;pressure;altitude;pressure_sealevel;temperature;humidity
19884;BME280;10104;50.732;10.174;2022-10-31T00:00:46;98368.13;;;13.68;84.73
19884;BME280;10104;50.732;10.174;2022-10-31T00:03:08;98360.31;;;13.66;84.62
19884;BME280;10104;50.732;10.174;2022-10-31T00:05:29;98354.66;;;13.76;84.26
19884;BME280;10104;50.732;10.174;2022-10-31T00:07:54;98362.16;;;13.66;84.42
19884;BME280;10104;50.732;10.174;2022-10-31T00:10:15;98359.69;;;13.64;84.90
19884;BME280;10104;50.732;10.174;2022-10-31T00:12:37;98358.31;;;13.41;86.03
19884;BME280;10104;50.732;10.174;2022-10-31T00:14:58;98362.44;;;13.43;84.88
19884;BME280;10104;50.732;10.174;2022-10-31T00:17:20;98351.78;;;13.43;85.10
19884;BME280;10104;50.732;10.174;2022-10-31T00:19:41;98353.63;;;13.43;85.53
19884;BME280;10104;50.732;10.174;2022-10-31T00:22:03;98344.31;;;13.60;85.18
19884;BME280;10104;50.732;10.174;2022-10-31T00:24:24;98356.72;;;13.46;85.58
19884;BME280;10104;50.732;10.174;2022-10-31T00:26:45;98358.28;;;13.34;85.99
19884;BME280;10104;50.732;10.174;2022-10-31T00:29:07;98360.41;;;13.17;86.26
19884;BME280;10104;50.732;10.174;2022-10-31T00:31:29;98357.03;;;13.30;85.42
19884;BME280;10104;50.732;10.174;2022-10-31T00:33:50;98357.44;;;13.33;85.36
19884;BME280;10104;50.732;10.174;2022-10-31T00:36:14;98365.59;;;13.25;85.67
19884;BME280;10104;50.732;10.174;2022-10-31T00:38:36;98379.13;;;13.09;87.67
19884;BME280;10104;50.732;10.174;2022-10-31T00:40:58;98370.63;;;13.14;86.71
19884;BME280;10104;50.732;10.174;2022-10-31T00:43:20;98373.34;;;13.20;85.91
19884;BME280;10104;50.732;10.174;2022-10-31T00:45:42;98370.91;;;13.25;85.59
19884;BME280;10104;50.732;10.174;2022-10-31T00:48:04;98377.69;;;13.07;86.86
19884;BME280;10104;50.732;10.174;2022-10-31T00:50:26;98374.97;;;13.00;85.25
19884;BME280;10104;50.732;10.174;2022-10-31T00:52:47;98373.50;;;12.97;85.35
19884;BME280;10104;50.732;10.174;2022-10-31T00:55:09;98378.50;;;13.07;85.19
19884;BME280;10104;50.732;10.174;2022-10-31T00:57:30;98367.81;;;13.01;85.13
19884;BME280;10104;50.732;10.174;2022-10-31T00:59:52;98371.06;;;12.96;85.27
19884;BME280;10104;50.732;10.174;2022-10-31T01:02:14;98376.47;;;12.67;86.51
19884;BME280;10104;50.732;10.174;2022-10-31T01:04:35;98368.31;;;12.68;84.86
19884;BME280;10104;50.732;10.174;2022-10-31T01:06:57;98379.72;;;12.62;85.47
19884;BME280;10104;50.732;10.174;2022-10-31T01:09:18;98382.00;;;12.65;85.33
19884;BME280;10104;50.732;10.174;2022-10-31T01:11:40;98382.78;;;12.66;86.01
19884;BME280;10104;50.732;10.174;2022-10-31T01:14:02;98378.13;;;12.68;85.74
19884;BME280;10104;50.732;10.174;2022-10-31T01:16:25;98382.88;;;12.72;85.91
19884;BME280;10104;50.732;10.174;2022-10-31T01:18:47;98395.31;;;12.50;89.45
19884;BME280;10104;50.732;10.174;2022-10-31T01:21:15;98399.72;;;12.43;85.75
19884;BME280;10104;50.732;10.174;2022-10-31T01:23:37;98401.91;;;12.54;85.22
19884;BME280;10104;50.732;10.174;2022-10-31T01:26:06;98404.31;;;12.35;87.52
19884;BME280;10104;50.732;10.174;2022-10-31T01:28:28;98405.47;;;12.47;86.53
19884;BME280;10104;50.732;10.174;2022-10-31T01:30:49;98399.69;;;12.58;85.79
19884;BME280;10104;50.732;10.174;2022-10-31T01:33:11;98401.72;;;12.56;85.88
19884;BME280;10104;50.732;10.174;2022-10-31T01:35:32;98400.13;;;12.62;85.25
19884;BME280;10104;50.732;10.174;2022-10-31T01:37:54;98404.22;;;12.43;85.88
19884;BME280;10104;50.732;10.174;2022-10-31T01:40:15;98399.66;;;12.37;85.56
19884;BME280;10104;50.732;10.174;2022-10-31T01:42:37;98402.81;;;12.11;87.20
19884;BME280;10104;50.732;10.174;2022-10-31T01:45:01;98398.50;;;12.25;86.34
19884;BME280;10104;50.732;10.174;2022-10-31T01:49:54;98396.97;;;12.15;86.66
19884;BME280;10104;50.732;10.174;2022-10-31T01:52:29;98399.88;;;11.91;87.81
19884;BME280;10104;50.732;10.174;2022-10-31T01:57:23;98400.28;;;11.88;87.96
19884;BME280;10104;50.732;10.174;2022-10-31T01:59:48;98395.50;;;11.98;87.11
19884;BME280;10104;50.732;10.174;2022-10-31T02:02:11;98393.78;;;11.91;87.62
19884;BME280;10104;50.732;10.174;2022-10-31T02:04:34;98399.09;;;11.91;87.29
19884;BME280;10104;50.732;10.174;2022-10-31T02:06:57;98396.88;;;11.94;87.39
19884;BME280;10104;50.732;10.174;2022-10-31T02:09:20;98394.50;;;11.99;86.99
19884;BME280;10104;50.732;10.174;2022-10-31T02:11:44;98392.97;;;11.90;87.68
19884;BME280;10104;50.732;10.174;2022-10-31T02:14:06;98400.09;;;11.90;87.51
19884;BME280;10104;50.732;10.174;2022-10-31T02:16:28;98401.81;;;11.97;87.03
19884;BME280;10104;50.732;10.174;2022-10-31T02:18:49;98400.06;;;12.04;86.81
19884;BME280;10104;50.732;10.174;2022-10-31T02:21:17;98404.75;;;12.02;87.02
19884;BME280;10104;50.732;10.174;2022-10-31T02:29:10;98406.47;;;12.10;86.46
19884;BME280;10104;50.732;10.174;2022-10-31T02:31:58;98412.53;;;11.89;87.63
19884;BME280;10104;50.732;10.174;2022-10-31T02:34:27;98396.97;;;11.86;87.57
19884;BME280;10104;50.732;10.174;2022-10-31T02:37:07;98396.97;;;11.71;87.17
19884;BME280;10104;50.732;10.174;2022-10-31T02:39:53;98395.31;;;11.85;86.45
19884;BME280;10104;50.732;10.174;2022-10-31T02:42:26;98395.78;;;11.89;85.82
19884;BME280;10104;50.732;10.174;2022-10-31T02:44:51;98402.25;;;11.71;85.97
19884;BME280;10104;50.732;10.174;2022-10-31T02:47:19;98398.09;;;11.77;85.52
19884;BME280;10104;50.732;10.174;2022-10-31T02:52:25;98396.22;;;11.63;85.87
19884;BME280;10104;50.732;10.174;2022-10-31T02:54:47;98401.34;;;11.64;85.71
19884;BME280;10104;50.732;10.174;2022-10-31T02:57:09;98399.34;;;11.66;85.76
19884;BME280;10104;50.732;10.174;2022-10-31T02:59:32;98399.03;;;11.61;85.93
19884;BME280;10104;50.732;10.174;2022-10-31T03:02:06;98405.41;;;11.75;85.32
19884;BME280;10104;50.732;10.174;2022-10-31T03:10:17;98409.88;;;11.74;85.36
19884;BME280;10104;50.732;10.174;2022-10-31T03:12:54;98404.91;;;11.71;85.82
19884;BME280;10104;50.732;10.174;2022-10-31T03:15:31;98399.97;;;11.54;86.81
19884;BME280;10104;50.732;10.174;2022-10-31T03:18:02;98402.53;;;11.62;86.63
19884;BME280;10104;50.732;10.174;2022-10-31T03:21:01;98408.94;;;11.53;87.73
19884;BME280;10104;50.732;10.174;2022-10-31T03:23:26;98407.94;;;11.54;87.18
19884;BME280;10104;50.732;10.174;2022-10-31T03:25:49;98407.44;;;11.50;86.87
19884;BME280;10104;50.732;10.174;2022-10-31T03:28:12;98413.38;;;11.38;87.33
19884;BME280;10104;50.732;10.174;2022-10-31T03:30:38;98403.25;;;11.41;86.96
19884;BME280;10104;50.732;10.174;2022-10-31T03:33:05;98413.84;;;11.41;86.51
19884;BME280;10104;50.732;10.174;2022-10-31T03:35:30;98408.91;;;11.38;86.25
19884;BME280;10104;50.732;10.174;2022-10-31T03:37:54;98401.50;;;11.48;85.82
19884;BME280;10104;50.732;10.174;2022-10-31T03:40:19;98406.13;;;11.31;85.91
19884;BME280;10104;50.732;10.174;2022-10-31T03:42:48;98410.09;;;11.35;85.50
19884;BME280;10104;50.732;10.174;2022-10-31T03:45:20;98417.53;;;11.17;85.32
19884;BME280;10104;50.732;10.174;2022-10-31T03:47:44;98414.97;;;11.24;85.03
19884;BME280;10104;50.732;10.174;2022-10-31T03:50:07;98405.19;;;11.24;85.08
19884;BME280;10104;50.732;10.174;2022-10-31T03:52:37;98402.38;;;11.26;84.58
19884;BME280;10104;50.732;10.174;2022-10-31T03:55:09;98399.50;;;11.13;85.09
19884;BME280;10104;50.732;10.174;2022-10-31T03:57:39;98404.97;;;11.11;84.88
19884;BME280;10104;50.732;10.174;2022-10-31T04:00:04;98390.22;;;11.17;84.61
19884;BME280;10104;50.732;10.174;2022-10-31T04:02:30;98393.38;;;11.12;84.56
19884;BME280;10104;50.732;10.174;2022-10-31T04:04:54;98406.59;;;10.98;84.80
19884;BME280;10104;50.732;10.174;2022-10-31T04:07:17;98402.59;;;11.02;84.36
19884;BME280;10104;50.732;10.174;2022-10-31T04:09:43;98397.75;;;11.05;84.15
19884;BME280;10104;50.732;10.174;2022-10-31T04:12:08;98401.47;;;10.96;84.64
19884;BME280;10104;50.732;10.174;2022-10-31T04:14:31;98397.13;;;11.03;84.39
19884;BME280;10104;50.732;10.174;2022-10-31T04:16:54;98395.28;;;11.04;84.60
19884;BME280;10104;50.732;10.174;2022-10-31T04:19:15;98391.66;;;11.05;84.54
19884;BME280;10104;50.732;10.174;2022-10-31T04:21:37;98396.63;;;11.00;84.81
19884;BME280;10104;50.732;10.174;2022-10-31T04:23:58;98396.94;;;10.82;87.08
19884;BME280;10104;50.732;10.174;2022-10-31T04:26:20;98400.09;;;10.85;85.60
19884;BME280;10104;50.732;10.174;2022-10-31T04:28:41;98395.53;;;10.94;85.03
19884;BME280;10104;50.732;10.174;2022-10-31T04:31:03;98394.53;;;10.95;85.15
19884;BME280;10104;50.732;10.174;2022-10-31T04:33:25;98405.50;;;10.92;85.23
19884;BME280;10104;50.732;10.174;2022-10-31T04:35:46;98401.66;;;10.94;85.14
19884;BME280;10104;50.732;10.174;2022-10-31T04:38:08;98399.16;;;10.93;85.40
19884;BME280;10104;50.732;10.174;2022-10-31T04:40:29;98401.91;;;10.85;85.78
19884;BME280;10104;50.732;10.174;2022-10-31T04:42:51;98396.81;;;10.75;86.04
19884;BME280;10104;50.732;10.174;2022-10-31T04:45:12;98395.38;;;10.73;86.03
19884;BME280;10104;50.732;10.174;2022-10-31T04:47:40;98400.41;;;10.82;85.20
19884;BME280;10104;50.732;10.174;2022-10-31T04:50:02;98398.84;;;10.73;85.60
19884;BME280;10104;50.732;10.174;2022-10-31T04:52:24;98392.88;;;10.71;85.30
19884;BME280;10104;50.732;10.174;2022-10-31T04:54:45;98393.56;;;10.73;85.29
19884;BME280;10104;50.732;10.174;2022-10-31T04:57:07;98396.78;;;10.83;84.78
19884;BME280;10104;50.732;10.174;2022-10-31T04:59:28;98387.75;;;10.92;84.68
19884;BME280;10104;50.732;10.174;2022-10-31T05:01:50;98381.31;;;10.72;86.24
19884;BME280;10104;50.732;10.174;2022-10-31T05:04:11;98380.47;;;10.72;86.06
19884;BME280;10104;50.732;10.174;2022-10-31T05:06:33;98388.63;;;10.62;87.17
19884;BME280;10104;50.732;10.174;2022-10-31T05:08:54;98390.03;;;10.50;86.96
19884;BME280;10104;50.732;10.174;2022-10-31T05:11:16;98400.06;;;10.63;85.44
19884;BME280;10104;50.732;10.174;2022-10-31T05:13:37;98395.25;;;10.66;85.17
19884;BME280;10104;50.732;10.174;2022-10-31T05:15:59;98384.03;;;10.56;85.48
19884;BME280;10104;50.732;10.174;2022-10-31T05:18:21;98385.25;;;10.53;85.43
19884;BME280;10104;50.732;10.174;2022-10-31T05:20:42;98388.59;;;10.47;85.89
19884;BME280;10104;50.732;10.174;2022-10-31T05:23:04;98384.16;;;10.40;86.61
19884;BME280;10104;50.732;10.174;2022-10-31T05:25:27;98389.03;;;10.51;85.72
19884;BME280;10104;50.732;10.174;2022-10-31T05:27:50;98389.94;;;10.66;84.78
19884;BME280;10104;50.732;10.174;2022-10-31T05:30:14;98385.81;;;10.64;85.03
19884;BME280;10104;50.732;10.174;2022-10-31T05:32:37;98385.88;;;10.55;85.44
19884;BME280;10104;50.732;10.174;2022-10-31T05:34:59;98387.00;;;10.61;85.10
19884;BME280;10104;50.732;10.174;2022-10-31T05:37:21;98382.72;;;10.60;84.60
19884;BME280;10104;50.732;10.174;2022-10-31T05:39:42;98384.41;;;10.53;84.71
19884;BME280;10104;50.732;10.174;2022-10-31T05:42:04;98392.19;;;10.54;84.78
19884;BME280;10104;50.732;10.174;2022-10-31T05:44:25;98385.53;;;10.59;84.17
19884;BME280;10104;50.732;10.174;2022-10-31T05:46:47;98385.88;;;10.55;84.47
19884;BME280;10104;50.732;10.174;2022-10-31T05:49:08;98380.97;;;10.44;84.44
19884;BME280;10104;50.732;10.174;2022-10-31T05:51:30;98387.81;;;10.39;84.72
19884;BME280;10104;50.732;10.174;2022-10-31T05:53:51;98382.88;;;10.36;84.64
19884;BME280;10104;50.732;10.174;2022-10-31T05:56:13;98391.28;;;10.39;84.42
19884;BME280;10104;50.732;10.174;2022-10-31T05:58:34;98390.13;;;10.42;84.28
19884;BME280;10104;50.732;10.174;2022-10-31T06:00:56;98391.56;;;10.44;83.95
19884;BME280;10104;50.732;10.174;2022-10-31T06:03:17;98395.22;;;10.43;84.05
19884;BME280;10104;50.732;10.174;2022-10-31T06:05:39;98389.13;;;10.43;84.08
19884;BME280;10104;50.732;10.174;2022-10-31T06:08:00;98387.81;;;10.39;84.42
19884;BME280;10104;50.732;10.174;2022-10-31T06:10:23;98394.75;;;10.40;84.26
19884;BME280;10104;50.732;10.174;2022-10-31T06:12:44;98399.19;;;10.17;84.85
19884;BME280;10104;50.732;10.174;2022-10-31T06:15:08;98399.44;;;10.30;84.01
19884;BME280;10104;50.732;10.174;2022-10-31T06:17:29;98401.28;;;10.29;84.07
19884;BME280;10104;50.732;10.174;2022-10-31T06:19:51;98399.44;;;10.30;83.81
19884;BME280;10104;50.732;10.174;2022-10-31T06:22:12;98402.22;;;10.36;83.79
19884;BME280;10104;50.732;10.174;2022-10-31T06:24:34;98400.88;;;10.40;83.63
19884;BME280;10104;50.732;10.174;2022-10-31T06:26:55;98411.78;;;10.37;84.40
19884;BME280;10104;50.732;10.174;2022-10-31T06:29:17;98413.38;;;10.24;85.37
19884;BME280;10104;50.732;10.174;2022-10-31T06:31:38;98414.13;;;10.32;84.63
19884;BME280;10104;50.732;10.174;2022-10-31T06:34:00;98416.75;;;10.40;83.88
19884;BME280;10104;50.732;10.174;2022-10-31T06:36:21;98415.41;;;10.44;83.53
19884;BME280;10104;50.732;10.174;2022-10-31T06:38:43;98419.69;;;10.45;83.30
19884;BME280;10104;50.732;10.174;2022-10-31T06:41:05;98426.22;;;10.35;84.49
19884;BME280;10104;50.732;10.174;2022-10-31T06:43:27;98429.81;;;10.42;83.74
19884;BME280;10104;50.732;10.174;2022-10-31T06:45:48;98433.78;;;10.38;83.82
19884;BME280;10104;50.732;10.174;2022-10-31T06:48:10;98425.66;;;10.47;83.51
19884;BME280;10104;50.732;10.174;2022-10-31T06:50:38;98425.66;;;10.17;85.15
19884;BME280;10104;50.732;10.174;2022-10-31T06:52:59;98436.22;;;10.08;85.03
19884;BME280;10104;50.732;10.174;2022-10-31T06:55:22;98439.84;;;10.24;84.55
19884;BME280;10104;50.732;10.174;2022-10-31T06:57:49;98443.09;;;10.34;84.07
19884;BME280;10104;50.732;10.174;2022-10-31T07:00:11;98444.06;;;10.41;84.00
19884;BME280;10104;50.732;10.174;2022-10-31T07:02:33;98443.88;;;10.42;84.35
19884;BME280;10104;50.732;10.174;2022-10-31T07:04:54;98452.31;;;10.38;84.72
19884;BME280;10104;50.732;10.174;2022-10-31T07:07:16;98450.94;;;10.50;84.30
19884;BME280;10104;50.732;10.174;2022-10-31T07:09:37;98442.16;;;10.49;84.64
19884;BME280;10104;50.732;10.174;2022-10-31T07:11:59;98446.03;;;10.39;85.80
19884;BME280;10104;50.732;10.174;2022-10-31T07:14:20;98458.94;;;10.42;85.51
19884;BME280;10104;50.732;10.174;2022-10-31T07:16:42;98449.09;;;10.59;85.00
19884;BME280;10104;50.732;10.174;2022-10-31T07:19:03;98458.81;;;10.66;84.48
19884;BME280;10104;50.732;10.174;2022-10-31T07:21:25;98448.34;;;10.73;84.25
19884;BME280;10104;50.732;10.174;2022-10-31T07:23:48;98450.88;;;10.66;84.99
19884;BME280;10104;50.732;10.174;2022-10-31T07:26:10;98459.69;;;10.81;84.37
19884;BME280;10104;50.732;10.174;2022-10-31T07:28:31;98459.81;;;10.88;84.08
19884;BME280;10104;50.732;10.174;2022-10-31T07:30:54;98459.00;;;10.87;84.62
19884;BME280;10104;50.732;10.174;2022-10-31T07:33:16;98449.47;;;11.01;83.66
19884;BME280;10104;50.732;10.174;2022-10-31T07:35:37;98454.22;;;11.06;83.82
19884;BME280;10104;50.732;10.174;2022-10-31T07:38:07;98452.69;;;11.11;83.83
19884;BME280;10104;50.732;10.174;2022-10-31T07:40:29;98446.75;;;11.09;84.52
19884;BME280;10104;50.732;10.174;2022-10-31T07:42:52;98442.53;;;11.23;84.17
19884;BME280;10104;50.732;10.174;2022-10-31T07:45:17;98442.09;;;11.34;84.04
19884;BME280;10104;50.732;10.174;2022-10-31T07:47:43;98436.34;;;11.45;84.05
19884;BME280;10104;50.732;10.174;2022-10-31T07:50:06;98429.78;;;11.56;83.98
19884;BME280;10104;50.732;10.174;2022-10-31T07:52:28;98439.41;;;11.71;83.81
19884;BME280;10104;50.732;10.174;2022-10-31T07:54:49;98430.19;;;11.82;84.01
19884;BME280;10104;50.732;10.174;2022-10-31T07:57:11;98440.91;;;11.89;83.84
19884;BME280;10104;50.732;10.174;2022-10-31T07:59:32;98442.09;;;12.01;84.10
19884;BME280;10104;50.732;10.174;2022-10-31T08:01:54;98431.66;;;12.14;83.92
19884;BME280;10104;50.732;10.174;2022-10-31T08:04:15;98435.50;;;12.26;83.73
19884;BME280;10104;50.732;10.174;2022-10-31T08:06:37;98441.88;;;12.32;84.54
19884;BME280;10104;50.732;10.174;2022-10-31T08:08:58;98443.69;;;12.46;84.69
19884;BME280;10104;50.732;10.174;2022-10-31T08:11:20;98435.00;;;12.52;86.20
19884;BME280;10104;50.732;10.174;2022-10-31T08:13:41;98429.63;;;12.67;85.95
19884;BME280;10104;50.732;10.174;2022-10-31T08:16:04;98427.94;;;12.80;85.84
19884;BME280;10104;50.732;10.174;2022-10-31T08:18:28;98431.56;;;12.94;86.30
19884;BME280;10104;50.732;10.174;2022-10-31T08:20:50;98437.09;;;13.14;85.89
19884;BME280;10104;50.732;10.174;2022-10-31T08:23:12;98432.56;;;13.35;86.18
19884;BME280;10104;50.732;10.174;2022-10-31T08:25:34;98434.16;;;13.58;86.09
19884;BME280;10104;50.732;10.174;2022-10-31T08:27:59;98431.25;;;13.81;86.19
19884;BME280;10104;50.732;10.174;2022-10-31T08:30:23;98425.47;;;14.05;85.80
19884;BME280;10104;50.732;10.174;2022-10-31T08:32:45;98421.22;;;14.17;88.51
19884;BME280;10104;50.732;10.174;2022-10-31T08:35:07;98421.50;;;14.35;88.18
19884;BME280;10104;50.732;10.174;2022-10-31T08:37:28;98415.47;;;14.61;87.06
19884;BME280;10104;50.732;10.174;2022-10-31T08:39:50;98412.06;;;14.87;86.57
19884;BME280;10104;50.732;10.174;2022-10-31T08:42:12;98408.19;;;15.09;86.32
19884;BME280;10104;50.732;10.174;2022-10-31T08:44:33;98406.94;;;15.18;88.15
19884;BME280;10104;50.732;10.174;2022-10-31T08:46:55;98404.50;;;15.23;88.65
19884;BME280;10104;50.732;10.174;2022-10-31T08:49:16;98397.53;;;15.42;89.32
19884;BME280;10104;50.732;10.174;2022-10-31T08:51:38;98400.34;;;15.80;86.44
19884;BME280;10104;50.732;10.174;2022-10-31T08:53:59;98393.09;;;16.07;85.84
19884;BME280;10104;50.732;10.174;2022-10-31T08:56:21;98395.06;;;16.31;85.19
19884;BME280;10104;50.732;10.174;2022-10-31T08:58:43;98390.50;;;16.45;85.97
19884;BME280;10104;50.732;10.174;2022-10-31T09:01:05;98384.25;;;16.57;85.70
19884;BME280;10104;50.732;10.174;2022-10-31T09:03:28;98377.22;;;16.70;85.05
19884;BME280;10104;50.732;10.174;2022-10-31T09:05:54;98391.75;;;16.80;83.90
19884;BME280;10104;50.732;10.174;2022-10-31T09:08:16;98385.59;;;16.80;84.63
19884;BME280;10104;50.732;10.174;2022-10-31T09:10:38;98387.03;;;16.82;84.64
19884;BME280;10104;50.732;10.174;2022-10-31T09:13:04;98381.41;;;16.90;84.40
19884;BME280;10104;50.732;10.174;2022-10-31T09:15:28;98375.41;;;16.95;84.32
19884;BME280;10104;50.732;10.174;2022-10-31T09:17:49;98377.25;;;16.94;84.31
19884;BME280;10104;50.732;10.174;2022-10-31T09:20:11;98371.03;;;17.01;84.11
19884;BME280;10104;50.732;10.174;2022-10-31T09:22:33;98382.31;;;17.09;83.77
19884;BME280;10104;50.732;10.174;2022-10-31T09:24:55;98371.41;;;17.04;84.44
19884;BME280;10104;50.732;10.174;2022-10-31T09:27:16;98376.34;;;17.07;84.66
19884;BME280;10104;50.732;10.174;2022-10-31T09:29:38;98369.09;;;17.14;84.49
19884;BME280;10104;50.732;10.174;2022-10-31T09:31:59;98370.84;;;17.27;84.46
19884;BME280;10104;50.732;10.174;2022-10-31T09:34:21;98360.38;;;17.44;84.33
19884;BME280;10104;50.732;10.174;2022-10-31T09:36:42;98362.47;;;17.66;83.70
19884;BME280;10104;50.732;10.174;2022-10-31T09:39:05;98361.56;;;17.91;82.98
19884;BME280;10104;50.732;10.174;2022-10-31T09:44:33;98346.84;;;18.18;83.78
19884;BME280;10104;50.732;10.174;2022-10-31T09:47:39;98348.06;;;18.34;81.79
19884;BME280;10104;50.732;10.174;2022-10-31T09:50:26;98350.97;;;18.50;80.68
19884;BME280;10104;50.732;10.174;2022-10-31T09:52:57;98355.56;;;18.62;80.38
19884;BME280;10104;50.732;10.174;2022-10-31T09:55:29;98350.81;;;18.64;80.07
19884;BME280;10104;50.732;10.174;2022-10-31T09:57:52;98348.97;;;18.76;78.46
19884;BME280;10104;50.732;10.174;2022-10-31T10:00:17;98351.59;;;18.64;78.68
19884;BME280;10104;50.732;10.174;2022-10-31T10:02:44;98342.38;;;18.60;80.53
19884;BME280;10104;50.732;10.174;2022-10-31T10:05:13;98339.75;;;18.83;78.63
19884;BME280;10104;50.732;10.174;2022-10-31T10:07:50;98334.09;;;19.03;77.81
19884;BME280;10104;50.732;10.174;2022-10-31T10:10:20;98332.47;;;19.14;79.47
19884;BME280;10104;50.732;10.174;2022-10-31T10:18:27;98325.59;;;19.18;78.14
19884;BME280;10104;50.732;10.174;2022-10-31T10:21:05;98323.50;;;19.31;78.44
19884;BME280;10104;50.732;10.174;2022-10-31T10:26:21;98316.72;;;19.87;78.82
19884;BME280;10104;50.732;10.174;2022-10-31T10:28:46;98322.09;;;19.87;73.20
19884;BME280;10104;50.732;10.174;2022-10-31T10:31:15;98317.34;;;20.06;73.49
19884;BME280;10104;50.732;10.174;2022-10-31T10:33:42;98311.53;;;20.37;73.18
19884;BME280;10104;50.732;10.174;2022-10-31T10:36:14;98309.88;;;20.65;71.62
19884;BME280;10104;50.732;10.174;2022-10-31T10:38:59;98306.31;;;20.92;69.44
19884;BME280;10104;50.732;10.174;2022-10-31T10:41:23;98299.72;;;21.00;68.94
19884;BME280;10104;50.732;10.174;2022-10-31T10:43:45;98293.44;;;20.94;67.33
19884;BME280;10104;50.732;10.174;2022-10-31T10:54:45;98284.56;;;21.66;63.42
19884;BME280;10104;50.732;10.174;2022-10-31T11:00:03;98283.94;;;21.80;65.91
19884;BME280;10104;50.732;10.174;2022-10-31T11:02:32;98274.88;;;22.08;65.51
19884;BME280;10104;50.732;10.174;2022-10-31T11:04:55;98276.06;;;21.96;64.84
19884;BME280;10104;50.732;10.174;2022-10-31T11:07:18;98274.81;;;22.03;64.54
19884;BME280;10104;50.732;10.174;2022-10-31T11:09:40;98272.72;;;21.89;64.55
19884;BME280;10104;50.732;10.174;2022-10-31T11:12:08;98262.34;;;21.80;63.19
19884;BME280;10104;50.732;10.174;2022-10-31T11:14:32;98273.44;;;21.62;63.21
19884;BME280;10104;50.732;10.174;2022-10-31T11:17:26;98254.34;;;21.64;63.35
19884;BME280;10104;50.732;10.174;2022-10-31T11:19:59;98254.03;;;21.82;64.53
19884;BME280;10104;50.732;10.174;2022-10-31T11:22:21;98250.69;;;21.75;59.75
19884;BME280;10104;50.732;10.174;2022-10-31T11:24:43;98247.63;;;21.88;61.43
19884;BME280;10104;50.732;10.174;2022-10-31T11:27:14;98243.00;;;21.84;62.99
19884;BME280;10104;50.732;10.174;2022-10-31T11:29:36;98244.75;;;21.95;60.33
19884;BME280;10104;50.732;10.174;2022-10-31T11:32:00;98251.91;;;21.84;62.27
19884;BME280;10104;50.732;10.174;2022-10-31T11:39:21;98237.09;;;22.08;62.20
19884;BME280;10104;50.732;10.174;2022-10-31T11:41:44;98228.66;;;22.27;60.98
19884;BME280;10104;50.732;10.174;2022-10-31T11:44:16;98225.16;;;22.26;61.61
19884;BME280;10104;50.732;10.174;2022-10-31T11:46:39;98220.78;;;22.20;61.17
19884;BME280;10104;50.732;10.174;2022-10-31T11:49:03;98219.50;;;22.28;59.71
19884;BME280;10104;50.732;10.174;2022-10-31T11:51:29;98222.59;;;22.14;59.60
19884;BME280;10104;50.732;10.174;2022-10-31T11:53:53;98217.09;;;22.31;58.07
19884;BME280;10104;50.732;10.174;2022-10-31T11:56:22;98215.78;;;22.34;58.66
19884;BME280;10104;50.732;10.174;2022-10-31T11:58:54;98216.53;;;22.29;59.58
19884;BME280;10104;50.732;10.174;2022-10-31T12:01:39;98212.69;;;22.20;59.91
19884;BME280;10104;50.732;10.174;2022-10-31T12:06:31;98211.03;;;22.46;59.31
19884;BME280;10104;50.732;10.174;2022-10-31T12:08:54;98207.19;;;22.42;58.86
19884;BME280;10104;50.732;10.174;2022-10-31T12:11:43;98205.97;;;22.54;58.01
19884;BME280;10104;50.732;10.174;2022-10-31T12:14:18;98202.84;;;22.68;57.14
19884;BME280;10104;50.732;10.174;2022-10-31T12:16:53;98205.19;;;22.59;57.45
19884;BME280;10104;50.732;10.174;2022-10-31T12:22:42;98195.22;;;22.96;58.09
19884;BME280;10104;50.732;10.174;2022-10-31T12:25:24;98196.63;;;23.04;56.68
19884;BME280;10104;50.732;10.174;2022-10-31T12:33:37;98184.00;;;23.15;56.53
19884;BME280;10104;50.732;10.174;2022-10-31T12:36:35;98181.13;;;23.31;56.16
19884;BME280;10104;50.732;10.174;2022-10-31T12:39:19;98178.19;;;23.38;56.27
19884;BME280;10104;50.732;10.174;2022-10-31T12:42:16;98173.94;;;23.47;55.77
19884;BME280;10104;50.732;10.174;2022-10-31T12:45:03;98169.97;;;23.70;56.36
19884;BME280;10104;50.732;10.174;2022-10-31T12:50:50;98166.22;;;23.91;54.87
19884;BME280;10104;50.732;10.174;2022-10-31T12:59:04;98139.81;;;24.18;55.13
19884;BME280;10104;50.732;10.174;2022-10-31T13:01:35;98143.56;;;24.28;53.82
19884;BME280;10104;50.732;10.174;2022-10-31T13:04:30;98140.31;;;24.21;54.87
19884;BME280;10104;50.732;10.174;2022-10-31T13:06:59;98136.53;;;24.22;54.75
19884;BME280;10104;50.732;10.174;2022-10-31T13:09:28;98134.38;;;24.29;54.11
19884;BME280;10104;50.732;10.174;2022-10-31T13:11:56;98128.97;;;24.39;54.10
19884;BME280;10104;50.732;10.174;2022-10-31T13:14:33;98122.19;;;24.41;54.26
19884;BME280;10104;50.732;10.174;2022-10-31T13:16:58;98120.84;;;24.44;54.67
19884;BME280;10104;50.732;10.174;2022-10-31T13:19:27;98114.63;;;24.43;54.54
19884;BME280;10104;50.732;10.174;2022-10-31T13:22:04;98115.16;;;24.40;54.00
19884;BME280;10104;50.732;10.174;2022-10-31T13:24:37;98114.59;;;24.38;54.70
19884;BME280;10104;50.732;10.174;2022-10-31T13:27:03;98111.59;;;24.04;53.74
19884;BME280;10104;50.732;10.174;2022-10-31T13:30:17;98101.59;;;24.10;54.48
19884;BME280;10104;50.732;10.174;2022-10-31T13:33:34;98101.59;;;24.00;54.92
19884;BME280;10104;50.732;10.174;2022-10-31T13:35:48;98105.38;;;23.94;55.53
19884;BME280;10104;50.732;10.174;2022-10-31T13:38:20;98097.81;;;24.06;55.01
19884;BME280;10104;50.732;10.174;2022-10-31T13:41:04;98095.63;;;24.08;55.58
19884;BME280;10104;50.732;10.174;2022-10-31T13:44:03;98093.44;;;23.95;55.85
19884;BME280;10104;50.732;10.174;2022-10-31T13:46:37;98095.38;;;23.99;55.76
19884;BME280;10104;50.732;10.174;2022-10-31T13:48:59;98092.66;;;23.94;54.98